Terminal Aerodrome Forecast
Issued by NWS

Current Version | Previous Version | Graphics & Text | Print | Product List | Glossary On
Versions: 1 2 3 4 5 6 7 8 9 10 11 12 13 14 15 16 17 18 19 20 21 22 23 24
002
FTUS41 KILN 190906 AAD
TAFLUK
TAF AMD
KLUK 190906Z 1909/2006 VRB02KT 4SM BR BKN100
      TEMPO 1909/1912 2SM BR
     FM191400 16005KT P6SM VCTS BKN060CB
     FM192200 VRB04KT P6SM VCSH BKN100
     FM200000 VRB04KT P6SM BKN100
     FM200500 VRB04KT 5SM BR BKN100=

USA.gov is the U.S. government's official web portal to all federal, state and local government web resources and services.